sensor_id;sensor_type;location;lat;lon;timestamp;P1;durP1;ratioP1;P2;durP2;ratioP2
22289;SDS011;11313;50.116;8.424;2023-10-19T00:02:06;1.75;;;1.40;;
22289;SDS011;11313;50.116;8.424;2023-10-19T00:04:32;1.42;;;1.33;;
22289;SDS011;11313;50.116;8.424;2023-10-19T00:07:00;2.03;;;1.30;;
22289;SDS011;11313;50.116;8.424;2023-10-19T00:09:26;1.55;;;1.30;;
22289;SDS011;11313;50.116;8.424;2023-10-19T00:14:22;1.70;;;1.40;;
22289;SDS011;11313;50.116;8.424;2023-10-19T00:16:50;1.67;;;1.30;;
22289;SDS011;11313;50.116;8.424;2023-10-19T00:19:18;1.63;;;1.48;;
22289;SDS011;11313;50.116;8.424;2023-10-19T00:21:46;1.65;;;1.35;;
22289;SDS011;11313;50.116;8.424;2023-10-19T00:24:16;1.42;;;1.33;;
22289;SDS011;11313;50.116;8.424;2023-10-19T00:26:47;1.52;;;1.30;;
22289;SDS011;11313;50.116;8.424;2023-10-19T00:29:13;1.98;;;1.35;;
22289;SDS011;11313;50.116;8.424;2023-10-19T00:31:55;1.48;;;1.27;;
22289;SDS011;11313;50.116;8.424;2023-10-19T00:34:21;1.80;;;1.40;;
22289;SDS011;11313;50.116;8.424;2023-10-19T00:36:47;1.42;;;1.33;;
22289;SDS011;11313;50.116;8.424;2023-10-19T00:39:15;1.35;;;1.10;;
22289;SDS011;11313;50.116;8.424;2023-10-19T00:41:46;1.50;;;1.30;;
22289;SDS011;11313;50.116;8.424;2023-10-19T00:44:12;1.30;;;1.20;;
22289;SDS011;11313;50.116;8.424;2023-10-19T00:46:47;1.83;;;1.40;;
22289;SDS011;11313;50.116;8.424;2023-10-19T00:49:18;1.40;;;1.30;;
22289;SDS011;11313;50.116;8.424;2023-10-19T00:51:49;1.42;;;1.33;;
22289;SDS011;11313;50.116;8.424;2023-10-19T00:54:17;1.40;;;1.13;;
22289;SDS011;11313;50.116;8.424;2023-10-19T00:56:56;1.33;;;1.10;;
22289;SDS011;11313;50.116;8.424;2023-10-19T00:59:24;1.83;;;1.30;;
22289;SDS011;11313;50.116;8.424;2023-10-19T01:01:55;1.33;;;1.10;;
22289;SDS011;11313;50.116;8.424;2023-10-19T01:04:41;1.65;;;1.05;;
22289;SDS011;11313;50.116;8.424;2023-10-19T01:07:08;1.15;;;1.05;;
22289;SDS011;11313;50.116;8.424;2023-10-19T01:09:46;1.30;;;1.20;;
22289;SDS011;11313;50.116;8.424;2023-10-19T01:12:12;1.45;;;1.35;;
22289;SDS011;11313;50.116;8.424;2023-10-19T01:17:39;1.55;;;1.23;;
22289;SDS011;11313;50.116;8.424;2023-10-19T01:20:19;1.85;;;1.40;;
22289;SDS011;11313;50.116;8.424;2023-10-19T01:22:51;1.20;;;1.10;;
22289;SDS011;11313;50.116;8.424;2023-10-19T01:25:41;1.25;;;1.02;;
22289;SDS011;11313;50.116;8.424;2023-10-19T01:28:21;1.30;;;1.20;;
22289;SDS011;11313;50.116;8.424;2023-10-19T01:30:50;1.38;;;1.23;;
22289;SDS011;11313;50.116;8.424;2023-10-19T01:33:19;1.30;;;1.20;;
22289;SDS011;11313;50.116;8.424;2023-10-19T01:35:46;1.80;;;1.42;;
22289;SDS011;11313;50.116;8.424;2023-10-19T01:38:30;1.48;;;1.20;;
22289;SDS011;11313;50.116;8.424;2023-10-19T01:40:59;1.27;;;1.17;;
22289;SDS011;11313;50.116;8.424;2023-10-19T01:43:26;1.30;;;1.20;;
22289;SDS011;11313;50.116;8.424;2023-10-19T01:45:56;1.20;;;1.10;;
22289;SDS011;11313;50.116;8.424;2023-10-19T01:48:22;1.38;;;1.20;;
22289;SDS011;11313;50.116;8.424;2023-10-19T01:50:58;2.03;;;1.10;;
22289;SDS011;11313;50.116;8.424;2023-10-19T01:53:25;1.38;;;1.27;;
22289;SDS011;11313;50.116;8.424;2023-10-19T01:55:50;1.15;;;1.02;;
22289;SDS011;11313;50.116;8.424;2023-10-19T01:58:22;1.30;;;0.98;;
22289;SDS011;11313;50.116;8.424;2023-10-19T02:00:52;1.27;;;1.00;;
22289;SDS011;11313;50.116;8.424;2023-10-19T02:03:25;1.20;;;1.10;;
22289;SDS011;11313;50.116;8.424;2023-10-19T02:05:59;1.10;;;1.00;;
22289;SDS011;11313;50.116;8.424;2023-10-19T02:08:31;1.40;;;1.10;;
22289;SDS011;11313;50.116;8.424;2023-10-19T02:10:56;2.17;;;1.02;;
22289;SDS011;11313;50.116;8.424;2023-10-19T02:13:22;1.92;;;1.30;;
22289;SDS011;11313;50.116;8.424;2023-10-19T02:15:48;1.20;;;1.10;;
22289;SDS011;11313;50.116;8.424;2023-10-19T02:18:15;1.35;;;1.25;;
22289;SDS011;11313;50.116;8.424;2023-10-19T02:20:42;1.30;;;1.15;;
22289;SDS011;11313;50.116;8.424;2023-10-19T02:25:39;1.02;;;0.98;;
22289;SDS011;11313;50.116;8.424;2023-10-19T02:28:05;1.20;;;1.10;;
22289;SDS011;11313;50.116;8.424;2023-10-19T02:30:34;0.90;;;0.90;;
22289;SDS011;11313;50.116;8.424;2023-10-19T02:33:00;1.23;;;1.10;;
22289;SDS011;11313;50.116;8.424;2023-10-19T02:35:28;1.15;;;1.05;;
22289;SDS011;11313;50.116;8.424;2023-10-19T02:37:53;1.17;;;1.08;;
22289;SDS011;11313;50.116;8.424;2023-10-19T02:40:19;1.42;;;1.10;;
22289;SDS011;11313;50.116;8.424;2023-10-19T02:42:45;1.10;;;1.00;;
22289;SDS011;11313;50.116;8.424;2023-10-19T02:45:18;1.13;;;1.02;;
22289;SDS011;11313;50.116;8.424;2023-10-19T02:47:44;1.92;;;1.10;;
22289;SDS011;11313;50.116;8.424;2023-10-19T02:50:11;1.40;;;1.20;;
22289;SDS011;11313;50.116;8.424;2023-10-19T02:55:08;1.33;;;1.17;;
22289;SDS011;11313;50.116;8.424;2023-10-19T02:57:35;1.02;;;0.93;;
22289;SDS011;11313;50.116;8.424;2023-10-19T03:00:01;1.10;;;1.00;;
22289;SDS011;11313;50.116;8.424;2023-10-19T03:02:33;1.38;;;1.00;;
22289;SDS011;11313;50.116;8.424;2023-10-19T03:05:01;1.08;;;0.98;;
22289;SDS011;11313;50.116;8.424;2023-10-19T03:07:34;1.10;;;1.00;;
22289;SDS011;11313;50.116;8.424;2023-10-19T03:09:59;1.55;;;1.08;;
22289;SDS011;11313;50.116;8.424;2023-10-19T03:12:27;0.82;;;0.82;;
22289;SDS011;11313;50.116;8.424;2023-10-19T03:14:52;1.40;;;1.05;;
22289;SDS011;11313;50.116;8.424;2023-10-19T03:17:18;1.00;;;0.90;;
22289;SDS011;11313;50.116;8.424;2023-10-19T03:19:43;1.00;;;0.90;;
22289;SDS011;11313;50.116;8.424;2023-10-19T03:22:09;1.15;;;1.05;;
22289;SDS011;11313;50.116;8.424;2023-10-19T03:24:36;1.00;;;1.00;;
22289;SDS011;11313;50.116;8.424;2023-10-19T03:27:12;1.67;;;1.13;;
22289;SDS011;11313;50.116;8.424;2023-10-19T03:29:48;0.93;;;0.90;;
22289;SDS011;11313;50.116;8.424;2023-10-19T03:32:19;1.00;;;0.90;;
22289;SDS011;11313;50.116;8.424;2023-10-19T03:34:51;0.98;;;0.90;;
22289;SDS011;11313;50.116;8.424;2023-10-19T03:37:20;1.10;;;1.00;;
22289;SDS011;11313;50.116;8.424;2023-10-19T03:39:50;1.70;;;1.00;;
22289;SDS011;11313;50.116;8.424;2023-10-19T03:42:16;1.00;;;0.80;;
22289;SDS011;11313;50.116;8.424;2023-10-19T03:44:42;1.00;;;0.90;;
22289;SDS011;11313;50.116;8.424;2023-10-19T03:47:08;1.05;;;0.95;;
22289;SDS011;11313;50.116;8.424;2023-10-19T03:49:37;1.15;;;1.00;;
22289;SDS011;11313;50.116;8.424;2023-10-19T03:52:06;1.27;;;1.00;;
22289;SDS011;11313;50.116;8.424;2023-10-19T03:54:36;1.20;;;1.00;;
22289;SDS011;11313;50.116;8.424;2023-10-19T03:57:05;1.20;;;1.10;;
22289;SDS011;11313;50.116;8.424;2023-10-19T03:59:44;1.20;;;1.00;;
22289;SDS011;11313;50.116;8.424;2023-10-19T04:02:10;0.80;;;0.80;;
22289;SDS011;11313;50.116;8.424;2023-10-19T04:04:40;1.10;;;1.00;;
22289;SDS011;11313;50.116;8.424;2023-10-19T04:07:12;1.00;;;0.90;;
22289;SDS011;11313;50.116;8.424;2023-10-19T04:09:48;1.08;;;0.95;;
22289;SDS011;11313;50.116;8.424;2023-10-19T04:12:34;1.25;;;0.90;;
22289;SDS011;11313;50.116;8.424;2023-10-19T04:15:01;1.48;;;0.90;;
22289;SDS011;11313;50.116;8.424;2023-10-19T04:17:35;1.38;;;1.17;;
22289;SDS011;11313;50.116;8.424;2023-10-19T04:20:01;1.10;;;1.00;;
22289;SDS011;11313;50.116;8.424;2023-10-19T04:22:38;1.48;;;1.10;;
22289;SDS011;11313;50.116;8.424;2023-10-19T04:25:04;1.17;;;0.93;;
22289;SDS011;11313;50.116;8.424;2023-10-19T04:27:31;1.10;;;1.00;;
22289;SDS011;11313;50.116;8.424;2023-10-19T04:30:00;1.30;;;1.05;;
22289;SDS011;11313;50.116;8.424;2023-10-19T04:32:26;1.27;;;1.00;;
22289;SDS011;11313;50.116;8.424;2023-10-19T04:34:52;1.17;;;1.00;;
22289;SDS011;11313;50.116;8.424;2023-10-19T04:37:18;1.08;;;0.98;;
22289;SDS011;11313;50.116;8.424;2023-10-19T04:39:46;1.00;;;0.90;;
22289;SDS011;11313;50.116;8.424;2023-10-19T04:42:14;1.00;;;0.88;;
22289;SDS011;11313;50.116;8.424;2023-10-19T04:44:40;1.13;;;1.02;;
22289;SDS011;11313;50.116;8.424;2023-10-19T04:47:05;0.88;;;0.88;;
22289;SDS011;11313;50.116;8.424;2023-10-19T04:49:31;0.88;;;0.88;;
22289;SDS011;11313;50.116;8.424;2023-10-19T04:51:56;0.80;;;0.80;;
22289;SDS011;11313;50.116;8.424;2023-10-19T04:54:22;1.00;;;0.90;;
22289;SDS011;11313;50.116;8.424;2023-10-19T04:56:47;1.08;;;0.98;;
22289;SDS011;11313;50.116;8.424;2023-10-19T04:59:13;0.95;;;0.80;;
22289;SDS011;11313;50.116;8.424;2023-10-19T05:01:38;0.90;;;0.90;;
22289;SDS011;11313;50.116;8.424;2023-10-19T05:04:06;0.80;;;0.80;;
22289;SDS011;11313;50.116;8.424;2023-10-19T05:06:31;1.00;;;0.90;;
22289;SDS011;11313;50.116;8.424;2023-10-19T05:08:57;1.20;;;1.10;;
22289;SDS011;11313;50.116;8.424;2023-10-19T05:11:22;1.13;;;1.02;;
22289;SDS011;11313;50.116;8.424;2023-10-19T05:13:48;0.85;;;0.85;;
22289;SDS011;11313;50.116;8.424;2023-10-19T05:16:13;0.80;;;0.80;;
22289;SDS011;11313;50.116;8.424;2023-10-19T05:18:39;1.00;;;0.90;;
22289;SDS011;11313;50.116;8.424;2023-10-19T05:21:04;1.30;;;0.98;;
22289;SDS011;11313;50.116;8.424;2023-10-19T05:23:30;0.95;;;0.85;;
22289;SDS011;11313;50.116;8.424;2023-10-19T05:26:02;0.80;;;0.80;;
22289;SDS011;11313;50.116;8.424;2023-10-19T05:28:29;0.80;;;0.80;;
22289;SDS011;11313;50.116;8.424;2023-10-19T05:30:55;1.00;;;0.90;;
22289;SDS011;11313;50.116;8.424;2023-10-19T05:33:20;0.90;;;0.90;;
22289;SDS011;11313;50.116;8.424;2023-10-19T05:35:48;1.08;;;0.98;;
22289;SDS011;11313;50.116;8.424;2023-10-19T05:38:14;1.10;;;1.00;;
22289;SDS011;11313;50.116;8.424;2023-10-19T05:40:40;0.98;;;0.90;;
22289;SDS011;11313;50.116;8.424;2023-10-19T05:43:08;0.90;;;0.85;;
22289;SDS011;11313;50.116;8.424;2023-10-19T05:45:33;1.13;;;1.00;;
22289;SDS011;11313;50.116;8.424;2023-10-19T05:48:01;1.10;;;1.00;;
22289;SDS011;11313;50.116;8.424;2023-10-19T05:50:28;0.80;;;0.80;;
22289;SDS011;11313;50.116;8.424;2023-10-19T05:52:54;1.10;;;0.88;;
22289;SDS011;11313;50.116;8.424;2023-10-19T05:55:20;1.00;;;0.90;;
22289;SDS011;11313;50.116;8.424;2023-10-19T05:57:49;1.00;;;0.90;;
22289;SDS011;11313;50.116;8.424;2023-10-19T06:00:14;1.10;;;0.98;;
22289;SDS011;11313;50.116;8.424;2023-10-19T06:02:42;1.00;;;0.90;;
22289;SDS011;11313;50.116;8.424;2023-10-19T06:05:12;0.88;;;0.82;;
22289;SDS011;11313;50.116;8.424;2023-10-19T06:10:11;0.80;;;0.80;;
22289;SDS011;11313;50.116;8.424;2023-10-19T06:12:44;0.90;;;0.90;;
22289;SDS011;11313;50.116;8.424;2023-10-19T06:15:15;0.95;;;0.88;;
22289;SDS011;11313;50.116;8.424;2023-10-19T06:17:42;1.23;;;1.13;;
22289;SDS011;11313;50.116;8.424;2023-10-19T06:20:09;1.10;;;1.00;;
22289;SDS011;11313;50.116;8.424;2023-10-19T06:22:47;1.50;;;1.08;;
22289;SDS011;11313;50.116;8.424;2023-10-19T06:25:20;0.98;;;0.88;;
22289;SDS011;11313;50.116;8.424;2023-10-19T06:27:46;1.10;;;1.00;;
22289;SDS011;11313;50.116;8.424;2023-10-19T06:30:13;1.10;;;1.00;;
22289;SDS011;11313;50.116;8.424;2023-10-19T06:35:10;1.52;;;1.00;;
22289;SDS011;11313;50.116;8.424;2023-10-19T06:37:36;0.90;;;0.90;;
22289;SDS011;11313;50.116;8.424;2023-10-19T06:40:01;1.27;;;1.17;;
22289;SDS011;11313;50.116;8.424;2023-10-19T06:42:27;1.00;;;0.90;;
22289;SDS011;11313;50.116;8.424;2023-10-19T06:44:53;1.20;;;1.10;;
22289;SDS011;11313;50.116;8.424;2023-10-19T06:47:20;1.00;;;0.90;;
22289;SDS011;11313;50.116;8.424;2023-10-19T06:49:48;0.90;;;0.80;;
22289;SDS011;11313;50.116;8.424;2023-10-19T06:52:13;0.93;;;0.90;;
22289;SDS011;11313;50.116;8.424;2023-10-19T06:54:40;1.25;;;1.15;;
22289;SDS011;11313;50.116;8.424;2023-10-19T06:57:06;1.40;;;1.10;;
22289;SDS011;11313;50.116;8.424;2023-10-19T06:59:33;1.33;;;1.23;;
22289;SDS011;11313;50.116;8.424;2023-10-19T07:02:00;1.15;;;0.90;;
22289;SDS011;11313;50.116;8.424;2023-10-19T07:04:26;1.17;;;1.08;;
22289;SDS011;11313;50.116;8.424;2023-10-19T07:06:53;1.20;;;1.10;;
22289;SDS011;11313;50.116;8.424;2023-10-19T07:09:18;1.10;;;1.00;;
22289;SDS011;11313;50.116;8.424;2023-10-19T07:11:44;1.10;;;1.00;;
22289;SDS011;11313;50.116;8.424;2023-10-19T07:14:10;1.20;;;1.00;;
22289;SDS011;11313;50.116;8.424;2023-10-19T07:16:37;1.42;;;1.13;;
22289;SDS011;11313;50.116;8.424;2023-10-19T07:19:04;1.38;;;1.15;;
22289;SDS011;11313;50.116;8.424;2023-10-19T07:21:30;1.17;;;1.08;;
22289;SDS011;11313;50.116;8.424;2023-10-19T07:24:00;0.95;;;0.90;;
22289;SDS011;11313;50.116;8.424;2023-10-19T07:26:30;1.10;;;1.00;;
22289;SDS011;11313;50.116;8.424;2023-10-19T07:28:58;1.63;;;1.17;;
22289;SDS011;11313;50.116;8.424;2023-10-19T07:31:27;1.20;;;1.10;;
22289;SDS011;11313;50.116;8.424;2023-10-19T07:33:53;1.42;;;1.10;;
22289;SDS011;11313;50.116;8.424;2023-10-19T07:36:22;1.20;;;1.10;;
22289;SDS011;11313;50.116;8.424;2023-10-19T07:38:49;1.10;;;1.00;;
22289;SDS011;11313;50.116;8.424;2023-10-19T07:41:16;1.20;;;1.00;;
22289;SDS011;11313;50.116;8.424;2023-10-19T07:43:42;1.10;;;1.00;;
22289;SDS011;11313;50.116;8.424;2023-10-19T07:46:09;1.20;;;1.10;;
22289;SDS011;11313;50.116;8.424;2023-10-19T07:48:36;1.17;;;1.08;;
22289;SDS011;11313;50.116;8.424;2023-10-19T07:51:03;1.10;;;1.00;;
22289;SDS011;11313;50.116;8.424;2023-10-19T07:53:28;1.17;;;1.08;;
22289;SDS011;11313;50.116;8.424;2023-10-19T07:55:55;1.20;;;1.10;;
22289;SDS011;11313;50.116;8.424;2023-10-19T07:58:22;1.33;;;1.10;;
22289;SDS011;11313;50.116;8.424;2023-10-19T08:00:47;1.00;;;1.00;;
22289;SDS011;11313;50.116;8.424;2023-10-19T08:03:13;1.10;;;1.00;;
22289;SDS011;11313;50.116;8.424;2023-10-19T08:05:41;1.55;;;1.20;;
22289;SDS011;11313;50.116;8.424;2023-10-19T08:08:06;1.30;;;1.20;;
22289;SDS011;11313;50.116;8.424;2023-10-19T08:10:32;1.50;;;1.40;;
22289;SDS011;11313;50.116;8.424;2023-10-19T08:13:01;1.20;;;1.10;;
22289;SDS011;11313;50.116;8.424;2023-10-19T08:15:27;1.20;;;1.00;;
22289;SDS011;11313;50.116;8.424;2023-10-19T08:17:55;1.33;;;1.13;;
22289;SDS011;11313;50.116;8.424;2023-10-19T08:20:21;1.05;;;1.00;;
22289;SDS011;11313;50.116;8.424;2023-10-19T08:22:55;1.30;;;1.20;;
22289;SDS011;11313;50.116;8.424;2023-10-19T08:25:22;1.00;;;1.00;;
22289;SDS011;11313;50.116;8.424;2023-10-19T08:27:48;1.10;;;1.00;;
22289;SDS011;11313;50.116;8.424;2023-10-19T08:30:15;1.35;;;1.25;;
22289;SDS011;11313;50.116;8.424;2023-10-19T08:32:46;1.67;;;1.00;;
22289;SDS011;11313;50.116;8.424;2023-10-19T08:35:15;1.23;;;1.13;;
22289;SDS011;11313;50.116;8.424;2023-10-19T08:40:11;1.20;;;1.10;;
22289;SDS011;11313;50.116;8.424;2023-10-19T08:42:41;1.52;;;1.23;;
22289;SDS011;11313;50.116;8.424;2023-10-19T08:45:09;1.40;;;1.20;;
22289;SDS011;11313;50.116;8.424;2023-10-19T08:47:37;1.40;;;1.30;;
22289;SDS011;11313;50.116;8.424;2023-10-19T08:50:08;1.35;;;1.20;;
22289;SDS011;11313;50.116;8.424;2023-10-19T08:52:34;1.50;;;1.30;;
22289;SDS011;11313;50.116;8.424;2023-10-19T08:55:01;1.23;;;1.13;;
22289;SDS011;11313;50.116;8.424;2023-10-19T08:57:27;1.55;;;1.20;;
22289;SDS011;11313;50.116;8.424;2023-10-19T08:59:53;1.50;;;1.33;;
22289;SDS011;11313;50.116;8.424;2023-10-19T09:02:23;1.50;;;1.40;;
22289;SDS011;11313;50.116;8.424;2023-10-19T09:04:48;1.30;;;1.20;;
22289;SDS011;11313;50.116;8.424;2023-10-19T09:07:16;1.20;;;1.10;;
22289;SDS011;11313;50.116;8.424;2023-10-19T09:09:41;1.50;;;1.30;;
22289;SDS011;11313;50.116;8.424;2023-10-19T09:12:07;1.30;;;1.20;;
22289;SDS011;11313;50.116;8.424;2023-10-19T09:14:36;1.33;;;1.23;;
22289;SDS011;11313;50.116;8.424;2023-10-19T09:17:06;1.20;;;1.10;;
22289;SDS011;11313;50.116;8.424;2023-10-19T09:19:42;1.50;;;1.20;;
22289;SDS011;11313;50.116;8.424;2023-10-19T09:22:09;1.50;;;1.30;;
22289;SDS011;11313;50.116;8.424;2023-10-19T09:24:43;1.30;;;1.20;;
22289;SDS011;11313;50.116;8.424;2023-10-19T09:27:10;1.50;;;1.38;;
22289;SDS011;11313;50.116;8.424;2023-10-19T09:29:36;1.55;;;1.45;;
22289;SDS011;11313;50.116;8.424;2023-10-19T09:32:01;1.50;;;1.40;;
22289;SDS011;11313;50.116;8.424;2023-10-19T09:34:30;1.65;;;1.33;;
22289;SDS011;11313;50.116;8.424;2023-10-19T09:36:59;1.52;;;1.30;;
22289;SDS011;11313;50.116;8.424;2023-10-19T09:39:26;1.30;;;1.20;;
22289;SDS011;11313;50.116;8.424;2023-10-19T09:41:59;1.27;;;1.17;;
22289;SDS011;11313;50.116;8.424;2023-10-19T09:44:30;1.48;;;1.33;;
22289;SDS011;11313;50.116;8.424;2023-10-19T09:46:59;1.42;;;1.33;;
22289;SDS011;11313;50.116;8.424;2023-10-19T09:49:29;1.35;;;1.25;;
22289;SDS011;11313;50.116;8.424;2023-10-19T09:51:55;1.80;;;1.48;;
22289;SDS011;11313;50.116;8.424;2023-10-19T09:54:22;1.52;;;1.40;;
22289;SDS011;11313;50.116;8.424;2023-10-19T09:56:58;1.42;;;1.33;;
22289;SDS011;11313;50.116;8.424;2023-10-19T09:59:37;1.30;;;1.20;;
22289;SDS011;11313;50.116;8.424;2023-10-19T10:02:07;1.45;;;1.35;;
22289;SDS011;11313;50.116;8.424;2023-10-19T10:04:35;1.50;;;1.40;;
22289;SDS011;11313;50.116;8.424;2023-10-19T10:07:01;1.52;;;1.42;;
22289;SDS011;11313;50.116;8.424;2023-10-19T10:09:30;1.52;;;1.35;;
22289;SDS011;11313;50.116;8.424;2023-10-19T10:12:12;1.50;;;1.33;;
22289;SDS011;11313;50.116;8.424;2023-10-19T10:15:00;1.52;;;1.42;;
22289;SDS011;11313;50.116;8.424;2023-10-19T10:17:36;1.50;;;1.40;;
22289;SDS011;11313;50.116;8.424;2023-10-19T10:22:40;1.50;;;1.40;;
22289;SDS011;11313;50.116;8.424;2023-10-19T10:25:27;1.77;;;1.65;;
22289;SDS011;11313;50.116;8.424;2023-10-19T10:27:53;1.73;;;1.63;;
22289;SDS011;11313;50.116;8.424;2023-10-19T10:30:20;1.50;;;1.40;;
22289;SDS011;11313;50.116;8.424;2023-10-19T10:32:46;1.50;;;1.40;;
22289;SDS011;11313;50.116;8.424;2023-10-19T10:38:02;1.40;;;1.30;;
22289;SDS011;11313;50.116;8.424;2023-10-19T10:40:30;1.40;;;1.30;;
22289;SDS011;11313;50.116;8.424;2023-10-19T10:43:06;1.40;;;1.30;;
22289;SDS011;11313;50.116;8.424;2023-10-19T10:45:32;1.50;;;1.40;;
22289;SDS011;11313;50.116;8.424;2023-10-19T10:47:58;1.90;;;1.40;;
22289;SDS011;11313;50.116;8.424;2023-10-19T10:50:26;1.48;;;1.38;;
22289;SDS011;11313;50.116;8.424;2023-10-19T10:52:53;1.50;;;1.40;;
22289;SDS011;11313;50.116;8.424;2023-10-19T10:55:22;1.50;;;1.40;;
22289;SDS011;11313;50.116;8.424;2023-10-19T10:57:50;1.45;;;1.35;;
22289;SDS011;11313;50.116;8.424;2023-10-19T11:00:16;2.33;;;1.70;;
22289;SDS011;11313;50.116;8.424;2023-10-19T11:02:43;1.70;;;1.60;;
22289;SDS011;11313;50.116;8.424;2023-10-19T11:05:10;1.63;;;1.40;;
22289;SDS011;11313;50.116;8.424;2023-10-19T11:07:37;1.50;;;1.40;;
22289;SDS011;11313;50.116;8.424;2023-10-19T11:10:04;1.63;;;1.52;;
22289;SDS011;11313;50.116;8.424;2023-10-19T11:12:30;1.70;;;1.60;;
22289;SDS011;11313;50.116;8.424;2023-10-19T11:14:57;1.70;;;1.60;;
22289;SDS011;11313;50.116;8.424;2023-10-19T11:17:24;1.60;;;1.50;;
22289;SDS011;11313;50.116;8.424;2023-10-19T11:19:59;1.88;;;1.67;;
22289;SDS011;11313;50.116;8.424;2023-10-19T11:22:25;1.52;;;1.40;;
22289;SDS011;11313;50.116;8.424;2023-10-19T11:24:51;1.60;;;1.50;;
22289;SDS011;11313;50.116;8.424;2023-10-19T11:27:27;1.85;;;1.58;;
22289;SDS011;11313;50.116;8.424;2023-10-19T11:29:54;1.60;;;1.50;;
22289;SDS011;11313;50.116;8.424;2023-10-19T11:32:24;1.52;;;1.42;;
22289;SDS011;11313;50.116;8.424;2023-10-19T11:34:56;1.58;;;1.48;;
22289;SDS011;11313;50.116;8.424;2023-10-19T11:37:22;1.73;;;1.63;;
22289;SDS011;11313;50.116;8.424;2023-10-19T11:39:48;1.67;;;1.58;;
22289;SDS011;11313;50.116;8.424;2023-10-19T11:42:15;1.73;;;1.55;;
22289;SDS011;11313;50.116;8.424;2023-10-19T11:44:43;1.90;;;1.50;;
22289;SDS011;11313;50.116;8.424;2023-10-19T11:47:09;1.67;;;1.33;;
22289;SDS011;11313;50.116;8.424;2023-10-19T11:49:35;1.48;;;1.38;;
22289;SDS011;11313;50.116;8.424;2023-10-19T11:52:03;1.60;;;1.50;;
22289;SDS011;11313;50.116;8.424;2023-10-19T11:54:30;1.83;;;1.70;;
22289;SDS011;11313;50.116;8.424;2023-10-19T11:56:56;1.45;;;1.35;;
22289;SDS011;11313;50.116;8.424;2023-10-19T11:59:21;1.75;;;1.65;;
22289;SDS011;11313;50.116;8.424;2023-10-19T12:01:48;1.63;;;1.52;;
22289;SDS011;11313;50.116;8.424;2023-10-19T12:04:13;1.65;;;1.50;;
22289;SDS011;11313;50.116;8.424;2023-10-19T12:06:39;1.88;;;1.77;;
22289;SDS011;11313;50.116;8.424;2023-10-19T12:09:05;1.55;;;1.45;;
22289;SDS011;11313;50.116;8.424;2023-10-19T12:11:40;1.50;;;1.40;;
22289;SDS011;11313;50.116;8.424;2023-10-19T12:14:06;1.50;;;1.40;;
22289;SDS011;11313;50.116;8.424;2023-10-19T12:16:36;1.67;;;1.58;;
22289;SDS011;11313;50.116;8.424;2023-10-19T12:19:01;1.63;;;1.52;;
22289;SDS011;11313;50.116;8.424;2023-10-19T12:21:28;1.70;;;1.60;;
22289;SDS011;11313;50.116;8.424;2023-10-19T12:23:55;1.50;;;1.40;;
22289;SDS011;11313;50.116;8.424;2023-10-19T12:26:21;1.58;;;1.48;;
22289;SDS011;11313;50.116;8.424;2023-10-19T12:28:47;1.90;;;1.75;;
22289;SDS011;11313;50.116;8.424;2023-10-19T12:31:14;1.50;;;1.40;;
22289;SDS011;11313;50.116;8.424;2023-10-19T12:33:39;1.63;;;1.52;;
22289;SDS011;11313;50.116;8.424;2023-10-19T12:36:06;1.73;;;1.60;;
22289;SDS011;11313;50.116;8.424;2023-10-19T12:38:51;1.50;;;1.40;;
22289;SDS011;11313;50.116;8.424;2023-10-19T12:41:18;1.60;;;1.40;;
22289;SDS011;11313;50.116;8.424;2023-10-19T12:43:44;1.67;;;1.58;;
22289;SDS011;11313;50.116;8.424;2023-10-19T12:46:11;1.45;;;1.35;;
22289;SDS011;11313;50.116;8.424;2023-10-19T12:48:38;1.63;;;1.52;;
22289;SDS011;11313;50.116;8.424;2023-10-19T12:51:04;1.50;;;1.40;;
22289;SDS011;11313;50.116;8.424;2023-10-19T12:53:32;1.50;;;1.40;;
22289;SDS011;11313;50.116;8.424;2023-10-19T12:55:58;1.58;;;1.48;;
22289;SDS011;11313;50.116;8.424;2023-10-19T12:58:24;1.60;;;1.50;;
22289;SDS011;11313;50.116;8.424;2023-10-19T13:00:52;1.38;;;1.27;;
22289;SDS011;11313;50.116;8.424;2023-10-19T13:03:19;1.60;;;1.50;;
22289;SDS011;11313;50.116;8.424;2023-10-19T13:05:45;1.52;;;1.42;;
22289;SDS011;11313;50.116;8.424;2023-10-19T13:08:12;1.60;;;1.50;;
22289;SDS011;11313;50.116;8.424;2023-10-19T13:10:41;1.60;;;1.50;;
22289;SDS011;11313;50.116;8.424;2023-10-19T13:13:09;1.55;;;1.45;;
22289;SDS011;11313;50.116;8.424;2023-10-19T13:15:37;1.50;;;1.40;;
22289;SDS011;11313;50.116;8.424;2023-10-19T13:18:03;1.50;;;1.40;;
22289;SDS011;11313;50.116;8.424;2023-10-19T13:20:34;1.50;;;1.40;;
22289;SDS011;11313;50.116;8.424;2023-10-19T13:25:31;1.40;;;1.30;;
22289;SDS011;11313;50.116;8.424;2023-10-19T13:28:15;1.60;;;1.40;;
22289;SDS011;11313;50.116;8.424;2023-10-19T13:30:49;1.60;;;1.50;;
22289;SDS011;11313;50.116;8.424;2023-10-19T13:33:16;1.67;;;1.58;;
22289;SDS011;11313;50.116;8.424;2023-10-19T13:35:43;1.50;;;1.40;;
22289;SDS011;11313;50.116;8.424;2023-10-19T13:38:10;1.50;;;1.40;;
22289;SDS011;11313;50.116;8.424;2023-10-19T13:40:39;1.60;;;1.50;;
22289;SDS011;11313;50.116;8.424;2023-10-19T13:43:06;1.60;;;1.50;;
22289;SDS011;11313;50.116;8.424;2023-10-19T13:45:33;1.60;;;1.50;;
22289;SDS011;11313;50.116;8.424;2023-10-19T13:48:00;1.60;;;1.50;;
22289;SDS011;11313;50.116;8.424;2023-10-19T13:50:27;2.58;;;1.50;;
22289;SDS011;11313;50.116;8.424;2023-10-19T13:52:54;1.55;;;1.45;;
22289;SDS011;11313;50.116;8.424;2023-10-19T13:55:21;1.70;;;1.60;;
22289;SDS011;11313;50.116;8.424;2023-10-19T13:57:48;1.55;;;1.45;;
22289;SDS011;11313;50.116;8.424;2023-10-19T14:00:14;1.60;;;1.50;;
22289;SDS011;11313;50.116;8.424;2023-10-19T14:02:48;1.52;;;1.42;;
22289;SDS011;11313;50.116;8.424;2023-10-19T14:05:14;1.70;;;1.60;;
22289;SDS011;11313;50.116;8.424;2023-10-19T14:07:40;1.50;;;1.40;;
22289;SDS011;11313;50.116;8.424;2023-10-19T14:10:06;1.65;;;1.55;;
22289;SDS011;11313;50.116;8.424;2023-10-19T14:12:33;1.67;;;1.58;;
22289;SDS011;11313;50.116;8.424;2023-10-19T14:14:58;1.50;;;1.40;;
22289;SDS011;11313;50.116;8.424;2023-10-19T14:17:24;1.67;;;1.58;;
22289;SDS011;11313;50.116;8.424;2023-10-19T14:19:50;1.70;;;1.60;;
22289;SDS011;11313;50.116;8.424;2023-10-19T14:22:16;1.45;;;1.35;;
22289;SDS011;11313;50.116;8.424;2023-10-19T14:24:42;1.85;;;1.70;;
22289;SDS011;11313;50.116;8.424;2023-10-19T14:27:08;1.58;;;1.48;;
22289;SDS011;11313;50.116;8.424;2023-10-19T14:29:34;1.50;;;1.40;;
22289;SDS011;11313;50.116;8.424;2023-10-19T14:31:59;1.60;;;1.50;;
22289;SDS011;11313;50.116;8.424;2023-10-19T14:34:25;1.40;;;1.30;;
22289;SDS011;11313;50.116;8.424;2023-10-19T14:36:54;1.65;;;1.50;;
22289;SDS011;11313;50.116;8.424;2023-10-19T14:39:20;1.45;;;1.35;;
22289;SDS011;11313;50.116;8.424;2023-10-19T14:41:45;1.50;;;1.40;;
22289;SDS011;11313;50.116;8.424;2023-10-19T14:44:11;1.40;;;1.30;;
22289;SDS011;11313;50.116;8.424;2023-10-19T14:46:37;1.70;;;1.60;;
22289;SDS011;11313;50.116;8.424;2023-10-19T14:49:02;1.40;;;1.30;;
22289;SDS011;11313;50.116;8.424;2023-10-19T14:51:28;1.58;;;1.48;;
22289;SDS011;11313;50.116;8.424;2023-10-19T14:53:54;1.60;;;1.50;;
22289;SDS011;11313;50.116;8.424;2023-10-19T14:56:19;1.63;;;1.52;;
22289;SDS011;11313;50.116;8.424;2023-10-19T14:58:46;1.60;;;1.48;;
22289;SDS011;11313;50.116;8.424;2023-10-19T15:01:11;1.50;;;1.40;;
22289;SDS011;11313;50.116;8.424;2023-10-19T15:03:42;1.65;;;1.55;;
22289;SDS011;11313;50.116;8.424;2023-10-19T15:06:08;1.48;;;1.38;;
22289;SDS011;11313;50.116;8.424;2023-10-19T15:08:33;1.50;;;1.40;;
22289;SDS011;11313;50.116;8.424;2023-10-19T15:10:59;1.50;;;1.40;;
22289;SDS011;11313;50.116;8.424;2023-10-19T15:13:24;1.50;;;1.40;;
22289;SDS011;11313;50.116;8.424;2023-10-19T15:15:50;1.60;;;1.50;;
22289;SDS011;11313;50.116;8.424;2023-10-19T15:18:16;1.65;;;1.55;;
22289;SDS011;11313;50.116;8.424;2023-10-19T15:20:43;1.58;;;1.48;;